Bay City, Oregon
Current Conditions -  °F | °C
As of 1:35 AM on Saturday 20 Dec 2014 (Local Time) from KTMK Reporting Station
Light Rain Light Rain  
Wind Chill: 50°   Ceiling: 3500
Heat Index: 50°   Visibility: 10mi
Dew Point: 46°   Wind: 9mph
Humidity: 87%   Direction: 140°SE
Pressure: 29.8"   Gusts: 17mph
Location:  45.52°N, 123.89°W
Report Text: KTMK 200935Z AUTO 14008G15KT 10SM -RA SCT027 BKN035 OVC050 10/08 A2980 RMK AO2 P0005
Loading
Personal Weather Stations






























Interactive Weather Map New forecast layout! Learn more

10-Day Weather Forecast

Advertisements
Track Severe Weather on mobile